Bow Clipper — LAUU4 — position and weather

sailwx.info

Track history (hours):
 
Tides and Currents Weather Stations Pressure Air Temp Water Temp Dewpoint Dewpoint Depression Visibility Wind Speed Wind Dir Waves Ship Positions

Bow Clipper

Last reported at 2016-Aug-27 07:31 UTC. Time now 2016-Aug-27 08:08 UTC.
Position N 51°53' E 004°17'.

Length 188 m; draft 6.1 m.

Type: Ship (hazmat cat B). MMSI: 258946991.

Date/timePositionNaut miles runAvg speedWind from/ knotsBaromVisibWave heightAir tempDewpointWater temp
2016-Aug-27 07:31N 51°53' E 004°17'0 0.0
2016-Aug-27 01:30N 51°53' E 004°17'0 0.0
2016-Aug-27 00:30N 51°53' E 004°17'0 0.0
2016-Aug-26 20:33N 51°53' E 004°17'0 0.0
2016-Aug-26 18:12N 51°53' E 004°17'0 0.0
2016-Aug-26 17:33N 51°53' E 004°17'0 0.0
2016-Aug-26 15:18N 51°53' E 004°17'1 0.8
2016-Aug-26 14:33N 51°53' E 004°18'3 3.1
2016-Aug-26 13:33N 51°55' E 004°14'9 9.1
2016-Aug-26 12:33N 51°60' E 004°01'1110.5
2016-Aug-26 11:33N 51°59' E 003°44'8 8.0
2016-Aug-26 10:34N 51°57' E 003°32'1212.2
2016-Aug-26 09:33N 51°54' E 003°13'1313.2
2016-Aug-26 08:33N 51°50' E 002°52'1111.1
2016-Aug-26 07:34N 51°55' E 002°36'1211.8
2016-Aug-26 06:31N 52°05' E 002°25'22 7.3
2016-Aug-26 03:27N 52°27' E 002°32'1311.0
2016-Aug-26 02:15N 52°14' E 002°33'811.0
2016-Aug-26 01:33N 52°06' E 002°31'1111.4
2016-Aug-26 00:33N 51°55' E 002°32'1211.6
2016-Aug-25 23:32N 51°43' E 002°30'1212.3
2016-Aug-25 22:33N 51°34' E 002°18'1212.0
2016-Aug-25 21:33N 51°22' E 002°11'1111.5
2016-Aug-25 20:33N 51°23' E 002°30'1211.7
2016-Aug-25 19:33N 51°22' E 002°48'1111.3
2016-Aug-25 18:33N 51°24' E 003°06'1212.0
2016-Aug-25 17:33N 51°25' E 003°26'9 9.4
2016-Aug-25 16:33N 51°26' E 003°41'9 9.3
2016-Aug-25 15:33N 51°21' E 003°53'6 6.1
2016-Aug-25 14:33N 51°23' E 004°02'9 9.2
2016-Aug-25 13:33N 51°20' E 004°16'4 4.2
2016-Aug-25 12:31N 51°16' E 004°17'1 0.9
2016-Aug-25 11:33N 51°16' E 004°15'0 0.0
2016-Aug-25 09:21N 51°16' E 004°15'0 0.0
2016-Aug-25 06:29N 51°16' E 004°15'0 0.0
2016-Aug-25 04:32N 51°16' E 004°15'0 0.0
2016-Aug-25 03:26N 51°16' E 004°15'0 0.0
2016-Aug-25 02:23N 51°16' E 004°15'0 0.0
2016-Aug-25 01:33N 51°16' E 004°15'0 0.0
2016-Aug-25 00:32N 51°16' E 004°15'0 0.0
2016-Aug-24 23:23N 51°16' E 004°15'0 0.0
2016-Aug-24 22:18N 51°16' E 004°15'0 0.0
2016-Aug-24 21:29N 51°16' E 004°15'0 0.0
2016-Aug-24 20:32N 51°16' E 004°15'0 0.0
2016-Aug-24 18:30N 51°16' E 004°15'0 0.0
2016-Aug-24 16:21N 51°16' E 004°15'0 0.0
2016-Aug-24 15:32N 51°16' E 004°15'0 0.0
2016-Aug-24 14:24N 51°16' E 004°15'0 0.0
2016-Aug-24 13:27N 51°16' E 004°15'0 0.0
2016-Aug-24 12:21N 51°16' E 004°15'0 0.0
2016-Aug-24 11:27N 51°16' E 004°15'0 0.0
2016-Aug-24 10:32N 51°16' E 004°15'0 0.0
2016-Aug-24 08:33N 51°16' E 004°15'0 0.0
2016-Aug-24 06:29N 51°16' E 004°15'0 0.0
2016-Aug-24 04:30N 51°16' E 004°15'0 0.0
2016-Aug-24 03:33N 51°16' E 004°15'0 0.0
2016-Aug-24 02:33N 51°16' E 004°15'0 0.0
2016-Aug-24 01:24N 51°16' E 004°15'0 0.0
2016-Aug-24 00:30N 51°16' E 004°15'0 0.0
2016-Aug-23 22:33N 51°16' E 004°15'0 0.0
2016-Aug-23 21:29N 51°16' E 004°15'0 0.0
2016-Aug-23 20:32N 51°16' E 004°15'0 0.0
2016-Aug-23 19:32N 51°16' E 004°15'0 0.0
2016-Aug-23 18:17N 51°16' E 004°15'0 0.0
2016-Aug-23 17:32N 51°16' E 004°15'0 0.0
2016-Aug-23 16:26N 51°16' E 004°15'0 0.0
2016-Aug-23 15:33N 51°16' E 004°15'1 0.7
2016-Aug-23 14:33N 51°16' E 004°17'2 1.9
2016-Aug-23 13:33N 51°17' E 004°19'9 8.5
2016-Aug-23 12:33N 51°24' E 004°12'8 7.6
2016-Aug-23 11:34N 51°26' E 004°00'9 8.8
2016-Aug-23 10:33N 51°21' E 003°49'8 8.4
2016-Aug-23 09:34N 51°26' E 003°39'8 8.4
2016-Aug-23 08:34N 51°25' E 003°26'10 9.7
2016-Aug-23 07:33N 51°24' E 003°10'1110.9
2016-Aug-23 06:33N 51°22' E 002°53'10 9.9
2016-Aug-23 05:33N 51°24' E 002°38'0 0.2
2016-Aug-23 04:31N 51°25' E 002°38'0 0.0
2016-Aug-23 03:32N 51°25' E 002°38'0 0.1
2016-Aug-23 02:31N 51°25' E 002°38'3 3.0
2016-Aug-23 01:33N 51°23' E 002°34'10 9.6
2016-Aug-23 00:33N 51°19' E 002°20'7 6.7
2016-Aug-22 23:34N 51°15' E 002°11'7 6.9
2016-Aug-22 22:33N 51°12' E 002°01'7 7.5
2016-Aug-22 21:33N 51°08' E 001°51'8 7.8
2016-Aug-22 20:33N 51°03' E 001°42'9 8.7
2016-Aug-22 19:33N 50°57' E 001°32'1111.3
2016-Aug-22 18:33N 50°46' E 001°24'1312.9
2016-Aug-22 17:33N 50°37' E 001°11'2913.1
2016-Aug-22 15:22N 50°24' E 000°30'1113.3
2016-Aug-22 14:33N 50°22' E 000°14'1413.8
2016-Aug-22 13:34N 50°18' W 000°07'1615.1
2016-Aug-22 12:29N 50°14' W 000°31'1616.5
2016-Aug-22 11:32N 50°09' W 000°55'1817.4
2016-Aug-22 10:30N 50°04' W 001°22'1717.8
2016-Aug-22 09:33N 49°59' W 001°47'1917.0
2016-Aug-22 08:28N 49°55' W 002°15'1415.3
2016-Aug-22 07:32N 49°52' W 002°37'1414.6
2016-Aug-22 06:34N 49°48' W 002°58'1413.9
2016-Aug-22 05:33N 49°47' W 003°19'1313.2
2016-Aug-22 04:33N 49°46' W 003°40'1212.5
2016-Aug-22 03:33N 49°46' W 003°59'1212.3
2016-Aug-22 02:33N 49°45' W 004°18'1212.2
2016-Aug-22 01:33N 49°44' W 004°37'1212.2
2016-Aug-22 00:33N 49°43' W 004°56'1312.4
2016-Aug-21 23:32N 49°42' W 005°15'1313.0
2016-Aug-21 22:32N 49°41' W 005°35'1513.4
2016-Aug-21 21:24N 49°39' W 005°58'1213.9
2016-Aug-21 20:34N 49°38' W 006°16'1414.4
2016-Aug-21 19:33N 49°38' W 006°39'1514.7
2016-Aug-21 18:33N 49°40' W 007°01'1514.6
2016-Aug-21 17:33N 49°41' W 007°24'  
Track history (hours):
 
Tides and Currents Weather Stations Pressure Air Temp Water Temp Dewpoint Dewpoint Depression Visibility Wind Speed Wind Dir Waves Ship Positions

Bow Clipper

Last reported at 2016-Aug-27 07:31 UTC. Time now 2016-Aug-27 08:08 UTC.
Position N 51°53' E 004°17'.

Length 188 m; draft 6.1 m.

Type: Ship (hazmat cat B). MMSI: 258946991.

Date/timePositionNaut miles runAvg speedWind from/ knotsBaromVisibWave heightAir tempDewpointWater temp
2016-Aug-27 07:31N 51°53' E 004°17'0 0.0
2016-Aug-27 01:30N 51°53' E 004°17'0 0.0
2016-Aug-27 00:30N 51°53' E 004°17'0 0.0
2016-Aug-26 20:33N 51°53' E 004°17'0 0.0
2016-Aug-26 18:12N 51°53' E 004°17'0 0.0
2016-Aug-26 17:33N 51°53' E 004°17'0 0.0
2016-Aug-26 15:18N 51°53' E 004°17'1 0.8
2016-Aug-26 14:33N 51°53' E 004°18'3 3.1
2016-Aug-26 13:33N 51°55' E 004°14'9 9.1
2016-Aug-26 12:33N 51°60' E 004°01'1110.5
2016-Aug-26 11:33N 51°59' E 003°44'8 8.0
2016-Aug-26 10:34N 51°57' E 003°32'1212.2
2016-Aug-26 09:33N 51°54' E 003°13'1313.2
2016-Aug-26 08:33N 51°50' E 002°52'1111.1
2016-Aug-26 07:34N 51°55' E 002°36'1211.8
2016-Aug-26 06:31N 52°05' E 002°25'22 7.3
2016-Aug-26 03:27N 52°27' E 002°32'1311.0
2016-Aug-26 02:15N 52°14' E 002°33'811.0
2016-Aug-26 01:33N 52°06' E 002°31'1111.4
2016-Aug-26 00:33N 51°55' E 002°32'1211.6
2016-Aug-25 23:32N 51°43' E 002°30'1212.3
2016-Aug-25 22:33N 51°34' E 002°18'1212.0
2016-Aug-25 21:33N 51°22' E 002°11'1111.5
2016-Aug-25 20:33N 51°23' E 002°30'1211.7
2016-Aug-25 19:33N 51°22' E 002°48'1111.3
2016-Aug-25 18:33N 51°24' E 003°06'1212.0
2016-Aug-25 17:33N 51°25' E 003°26'9 9.4
2016-Aug-25 16:33N 51°26' E 003°41'9 9.3
2016-Aug-25 15:33N 51°21' E 003°53'6 6.1
2016-Aug-25 14:33N 51°23' E 004°02'9 9.2
2016-Aug-25 13:33N 51°20' E 004°16'4 4.2
2016-Aug-25 12:31N 51°16' E 004°17'1 0.9
2016-Aug-25 11:33N 51°16' E 004°15'0 0.0
2016-Aug-25 09:21N 51°16' E 004°15'0 0.0
2016-Aug-25 06:29N 51°16' E 004°15'0 0.0
2016-Aug-25 04:32N 51°16' E 004°15'0 0.0
2016-Aug-25 03:26N 51°16' E 004°15'0 0.0
2016-Aug-25 02:23N 51°16' E 004°15'0 0.0
2016-Aug-25 01:33N 51°16' E 004°15'0 0.0
2016-Aug-25 00:32N 51°16' E 004°15'0 0.0
2016-Aug-24 23:23N 51°16' E 004°15'0 0.0
2016-Aug-24 22:18N 51°16' E 004°15'0 0.0
2016-Aug-24 21:29N 51°16' E 004°15'0 0.0
2016-Aug-24 20:32N 51°16' E 004°15'0 0.0
2016-Aug-24 18:30N 51°16' E 004°15'0 0.0
2016-Aug-24 16:21N 51°16' E 004°15'0 0.0
2016-Aug-24 15:32N 51°16' E 004°15'0 0.0
2016-Aug-24 14:24N 51°16' E 004°15'0 0.0
2016-Aug-24 13:27N 51°16' E 004°15'0 0.0
2016-Aug-24 12:21N 51°16' E 004°15'0 0.0
2016-Aug-24 11:27N 51°16' E 004°15'0 0.0
2016-Aug-24 10:32N 51°16' E 004°15'0 0.0
2016-Aug-24 08:33N 51°16' E 004°15'0 0.0
2016-Aug-24 06:29N 51°16' E 004°15'0 0.0
2016-Aug-24 04:30N 51°16' E 004°15'0 0.0
2016-Aug-24 03:33N 51°16' E 004°15'0 0.0
2016-Aug-24 02:33N 51°16' E 004°15'0 0.0
2016-Aug-24 01:24N 51°16' E 004°15'0 0.0
2016-Aug-24 00:30N 51°16' E 004°15'0 0.0
2016-Aug-23 22:33N 51°16' E 004°15'0 0.0
2016-Aug-23 21:29N 51°16' E 004°15'0 0.0
2016-Aug-23 20:32N 51°16' E 004°15'0 0.0
2016-Aug-23 19:32N 51°16' E 004°15'0 0.0
2016-Aug-23 18:17N 51°16' E 004°15'0 0.0
2016-Aug-23 17:32N 51°16' E 004°15'0 0.0
2016-Aug-23 16:26N 51°16' E 004°15'0 0.0
2016-Aug-23 15:33N 51°16' E 004°15'1 0.7
2016-Aug-23 14:33N 51°16' E 004°17'2 1.9
2016-Aug-23 13:33N 51°17' E 004°19'9 8.5
2016-Aug-23 12:33N 51°24' E 004°12'8 7.6
2016-Aug-23 11:34N 51°26' E 004°00'9 8.8
2016-Aug-23 10:33N 51°21' E 003°49'8 8.4
2016-Aug-23 09:34N 51°26' E 003°39'8 8.4
2016-Aug-23 08:34N 51°25' E 003°26'10 9.7
2016-Aug-23 07:33N 51°24' E 003°10'1110.9
2016-Aug-23 06:33N 51°22' E 002°53'10 9.9
2016-Aug-23 05:33N 51°24' E 002°38'0 0.2
2016-Aug-23 04:31N 51°25' E 002°38'0 0.0
2016-Aug-23 03:32N 51°25' E 002°38'0 0.1
2016-Aug-23 02:31N 51°25' E 002°38'3 3.0
2016-Aug-23 01:33N 51°23' E 002°34'10 9.6
2016-Aug-23 00:33N 51°19' E 002°20'7 6.7
2016-Aug-22 23:34N 51°15' E 002°11'7 6.9
2016-Aug-22 22:33N 51°12' E 002°01'7 7.5
2016-Aug-22 21:33N 51°08' E 001°51'8 7.8
2016-Aug-22 20:33N 51°03' E 001°42'9 8.7
2016-Aug-22 19:33N 50°57' E 001°32'1111.3
2016-Aug-22 18:33N 50°46' E 001°24'1312.9
2016-Aug-22 17:33N 50°37' E 001°11'2913.1
2016-Aug-22 15:22N 50°24' E 000°30'1113.3
2016-Aug-22 14:33N 50°22' E 000°14'1413.8
2016-Aug-22 13:34N 50°18' W 000°07'1615.1
2016-Aug-22 12:29N 50°14' W 000°31'1616.5
2016-Aug-22 11:32N 50°09' W 000°55'1817.4
2016-Aug-22 10:30N 50°04' W 001°22'1717.8
2016-Aug-22 09:33N 49°59' W 001°47'1917.0
2016-Aug-22 08:28N 49°55' W 002°15'1415.3
2016-Aug-22 07:32N 49°52' W 002°37'1414.6
2016-Aug-22 06:34N 49°48' W 002°58'1413.9
2016-Aug-22 05:33N 49°47' W 003°19'1313.2
2016-Aug-22 04:33N 49°46' W 003°40'1212.5
2016-Aug-22 03:33N 49°46' W 003°59'1212.3
2016-Aug-22 02:33N 49°45' W 004°18'1212.2
2016-Aug-22 01:33N 49°44' W 004°37'1212.2
2016-Aug-22 00:33N 49°43' W 004°56'1312.4
2016-Aug-21 23:32N 49°42' W 005°15'1313.0
2016-Aug-21 22:32N 49°41' W 005°35'1513.4
2016-Aug-21 21:24N 49°39' W 005°58'1213.9
2016-Aug-21 20:34N 49°38' W 006°16'1414.4
2016-Aug-21 19:33N 49°38' W 006°39'1514.7
2016-Aug-21 18:33N 49°40' W 007°01'1514.6
2016-Aug-21 17:33N 49°41' W 007°24'  

Dump ship's entire track history